CMA CGM Aristote — MRPN4 — position and weather

sailwx.info

Track history (hours):
 
Tides and Currents Weather Stations Pressure Air Temp Water Temp Dewpoint Dewpoint Depression Visibility Wind Speed Wind Dir Waves Ship Positions

CMA CGM Aristote

Last reported at 2016-Jul-30 22:34 UTC. Time now 2016-Jul-31 07:24 UTC.
Position N 49°58' W 002°50'.

Length 170 m; draft 9.5 m.

Type: Ship (hazmat cat A). MMSI: 235054581.

Date/timePositionNaut miles runAvg speedWind from/ knotsBaromVisibWave heightAir tempDewpointWater temp
2016-Jul-30 22:34N 49°58' W 002°50'2020.3
2016-Jul-30 21:33N 50°03' W 002°19'1919.4
2016-Jul-30 20:34N 49°58' W 001°50'1918.3
2016-Jul-30 19:32N 49°51' W 001°23'1616.9
2016-Jul-30 18:34N 49°45' W 000°59'1716.5
2016-Jul-30 17:34N 49°40' W 000°35'1515.3
2016-Jul-30 16:33N 49°34' W 000°13'1211.6
2016-Jul-30 15:33N 49°30' E 000°03'5 5.0
2016-Jul-30 14:33N 49°27' E 000°10'0 0.0
2016-Jul-30 13:33N 49°27' E 000°10'0 0.0
2016-Jul-30 12:33N 49°27' E 000°10'0 0.0
2016-Jul-30 11:33N 49°27' E 000°10'1 0.7
2016-Jul-30 10:33N 49°27' E 000°09'3 3.3
2016-Jul-30 09:33N 49°29' E 000°05'1010.0
2016-Jul-30 08:33N 49°36' W 000°06'6 6.4
2016-Jul-30 07:33N 49°42' W 000°09'1 0.7
2016-Jul-30 06:33N 49°42' W 000°10'2 1.9
2016-Jul-30 05:33N 49°42' W 000°13'3 3.0
2016-Jul-30 04:33N 49°45' W 000°14'7 7.3
2016-Jul-30 03:33N 49°52' W 000°17'9 9.1
2016-Jul-30 02:33N 50°01' W 000°18'9 9.0
2016-Jul-30 01:33N 50°10' W 000°18'9 9.2
2016-Jul-30 00:33N 50°19' W 000°18'8 8.0
2016-Jul-29 23:33N 50°26' W 000°10'9 9.3
2016-Jul-29 22:33N 50°28' E 000°04'9 8.8
2016-Jul-29 21:31N 50°31' E 000°18'5 5.2
2016-Jul-29 20:33N 50°32' E 000°25'12 5.6
2016-Jul-29 18:27N 50°37' E 000°42'21 9.4
2016-Jul-29 16:12N 50°49' E 001°10'812.5
2016-Jul-29 15:31N 50°55' E 001°19'1313.6
2016-Jul-29 14:33N 51°05' E 001°33'1313.3
2016-Jul-29 13:34N 51°15' E 001°47'1212.0
2016-Jul-29 12:34N 51°24' E 001°59'1111.0
2016-Jul-29 11:33N 51°21' E 002°16'1110.7
2016-Jul-29 10:34N 51°23' E 002°33'1110.6
2016-Jul-29 09:33N 51°23' E 002°50'1313.2
2016-Jul-29 08:33N 51°24' E 003°11'1312.9
2016-Jul-29 07:33N 51°25' E 003°32'7 7.1
2016-Jul-29 06:33N 51°24' E 003°43'9 9.2
2016-Jul-29 05:33N 51°24' E 003°57'9 8.5
2016-Jul-29 04:34N 51°24' E 004°11'7 6.9
2016-Jul-29 03:34N 51°18' E 004°16'0 0.0
2016-Jul-29 02:32N 51°18' E 004°16'0 0.0
2016-Jul-29 01:32N 51°18' E 004°16'0 0.0
2016-Jul-29 00:29N 51°18' E 004°16'0 0.0
2016-Jul-28 23:32N 51°18' E 004°16'0 0.0
2016-Jul-28 22:32N 51°18' E 004°16'0 0.0
2016-Jul-28 21:26N 51°18' E 004°16'0 0.0
2016-Jul-28 20:32N 51°18' E 004°16'0 0.0
2016-Jul-28 19:32N 51°18' E 004°16'0 0.0
2016-Jul-28 18:32N 51°18' E 004°16'0 0.0
2016-Jul-28 17:29N 51°18' E 004°16'0 0.0
2016-Jul-28 16:29N 51°18' E 004°16'0 0.0
2016-Jul-28 15:29N 51°18' E 004°16'0 0.0
2016-Jul-28 14:26N 51°18' E 004°16'3 3.6
2016-Jul-28 13:33N 51°21' E 004°16'9 9.0
2016-Jul-28 12:33N 51°24' E 004°02'8 8.3
2016-Jul-28 11:33N 51°21' E 003°50'10 9.8
2016-Jul-28 10:34N 51°26' E 003°37'9 9.0
2016-Jul-28 09:33N 51°32' E 003°25'1110.6
2016-Jul-28 08:33N 51°41' E 003°18'10 9.2
2016-Jul-28 07:31N 51°51' E 003°18'16 8.1
2016-Jul-28 05:33N 52°03' E 003°35'1110.7
2016-Jul-28 04:33N 52°03' E 003°52'9 8.9
2016-Jul-28 03:33N 51°58' E 004°04'1 1.3
2016-Jul-28 02:31N 51°58' E 004°02'0 0.0
2016-Jul-28 01:31N 51°58' E 004°02'0 0.0
2016-Jul-28 00:31N 51°58' E 004°02'0 0.0
2016-Jul-27 23:25N 51°58' E 004°02'0 0.0
2016-Jul-27 22:31N 51°58' E 004°02'0 0.0
2016-Jul-27 21:31N 51°58' E 004°02'0 0.0
2016-Jul-27 20:31N 51°58' E 004°02'0 0.0
2016-Jul-27 19:28N 51°58' E 004°02'0 0.0
2016-Jul-27 18:31N 51°58' E 004°02'0 0.0
2016-Jul-27 17:31N 51°58' E 004°02'1 1.3
2016-Jul-27 16:34N 51°59' E 004°04'1010.1
2016-Jul-27 15:33N 52°01' E 003°48'1211.7
2016-Jul-27 14:33N 52°12' E 003°46'1717.3
2016-Jul-27 13:33N 52°29' E 003°50'2019.6
2016-Jul-27 12:34N 52°49' E 003°56'5117.0
2016-Jul-27 09:32N 53°30' E 004°46'1717.6
2016-Jul-27 08:33N 53°36' E 005°14'1919.1
2016-Jul-27 07:34N 53°43' E 005°44'2019.6
2016-Jul-27 06:34N 53°49' E 006°15'2019.5
2016-Jul-27 05:33N 53°54' E 006°47'1919.1
2016-Jul-27 04:33N 53°59' E 007°19'1818.0
2016-Jul-27 03:33N 54°02' E 007°49'1313.1
2016-Jul-27 02:33N 54°01' E 008°11'1211.7
2016-Jul-27 01:33N 53°58' E 008°30'1212.1
2016-Jul-27 00:33N 53°51' E 008°46'1414.0
2016-Jul-26 23:33N 53°53' E 009°10'1414.3
2016-Jul-26 22:34N 53°43' E 009°28'1313.4
2016-Jul-26 21:33N 53°34' E 009°44'7 7.0
2016-Jul-26 20:33N 53°32' E 009°55'0 0.0
2016-Jul-26 19:33N 53°32' E 009°55'0 0.0
2016-Jul-26 18:33N 53°32' E 009°55'0 0.0
2016-Jul-26 17:33N 53°32' E 009°55'0 0.0
2016-Jul-26 16:33N 53°32' E 009°55'0 0.0
2016-Jul-26 15:33N 53°32' E 009°55'0 0.0
2016-Jul-26 14:33N 53°32' E 009°55'2 1.9
2016-Jul-26 13:34N 53°33' E 009°52'9 8.7
2016-Jul-26 12:34N 53°35' E 009°38'1111.4
2016-Jul-26 11:33N 53°44' E 009°27'1212.5
2016-Jul-26 10:34N 53°53' E 009°12'1110.9
2016-Jul-26 09:33N 53°51' E 008°54'1110.4
2016-Jul-26 08:33N 53°56' E 008°39'1313.0
2016-Jul-26 07:33N 53°60' E 008°18'1110.6
2016-Jul-26 06:33N 54°01' E 007°60'1212.0
2016-Jul-26 05:33N 54°07' E 007°42'1514.7
2016-Jul-26 04:33N 54°21' E 007°33'1918.5
2016-Jul-26 03:33N 54°39' E 007°29'1918.7
2016-Jul-26 02:33N 54°57' E 007°25'1919.1
2016-Jul-26 01:33N 55°16' E 007°21'1919.2
2016-Jul-26 00:33N 55°35' E 007°17'1918.7
2016-Jul-25 23:33N 55°54' E 007°24'13717.1
2016-Jul-25 15:32N 57°41' E 010°00'1717.7
2016-Jul-25 14:33N 57°48' E 010°30'1716.8
2016-Jul-25 13:33N 57°42' E 010°59'1919.0
2016-Jul-25 12:33N 57°29' E 011°25'1919.0
2016-Jul-25 11:33N 57°11' E 011°37'1818.4
2016-Jul-25 10:33N 56°54' E 011°48'1716.6
2016-Jul-25 09:33N 56°38' E 011°45'1918.8
2016-Jul-25 08:33N 56°21' E 011°28'1818.0
2016-Jul-25 07:33N 56°07' E 011°10'1616.0
2016-Jul-25 06:33N 55°53' E 010°54'1413.5
2016-Jul-25 05:34N 55°40' E 010°47'1413.7
2016-Jul-25 04:33N 55°27' E 010°57'1313.5
2016-Jul-25 03:33N 55°15' E 011°05'1616.3
2016-Jul-25 02:33N 54°59' E 011°01'1717.4
2016-Jul-25 01:33N 54°42' E 010°55'2019.6
2016-Jul-25 00:33N 54°33' E 011°25'1919.1
2016-Jul-24 23:34N 54°26' E 011°56'1514.9
2016-Jul-24 22:33N 54°37' E 012°14'1818.4
2016-Jul-24 21:34N 54°47' E 012°40'1818.1
2016-Jul-24 20:33N 54°53' E 013°10'1918.7
2016-Jul-24 19:33N 54°59' E 013°40'1818.0
2016-Jul-24 18:33N 55°08' E 014°08'1918.7
2016-Jul-24 17:33N 55°22' E 014°29'1918.6
2016-Jul-24 16:33N 55°34' E 014°56'1818.5
2016-Jul-24 15:33N 55°43' E 015°24'31518.5
2016-Jul-23 22:33N 59°26' E 022°17'1918.5
2016-Jul-23 21:32N 59°34' E 022°51'1818.6
2016-Jul-23 20:33N 59°40' E 023°25'1918.6
2016-Jul-23 19:33N 59°44' E 024°01'1918.6
2016-Jul-23 18:33N 59°48' E 024°37'3718.5
2016-Jul-23 16:33N 59°56' E 025°49'1918.8
2016-Jul-23 15:33N 60°00' E 026°26'1918.1
2016-Jul-23 14:30N 60°00' E 027°04'1818.7
2016-Jul-23 13:33N 60°09' E 027°35'1716.6
2016-Jul-23 12:33N 60°09' E 028°08'1413.7
2016-Jul-23 11:33N 60°03' E 028°33'1212.5
2016-Jul-23 10:33N 60°02' E 028°58'1312.9
2016-Jul-23 09:32N 60°02' E 029°24'1010.5
2016-Jul-23 08:33N 59°59' E 029°44'3 2.9
2016-Jul-23 07:31N 59°56' E 029°42'0 0.0
2016-Jul-23 06:31N 59°56' E 029°42'0 0.0
2016-Jul-23 04:31N 59°56' E 029°42'0 0.0
2016-Jul-23 03:28N 59°56' E 029°42'0 0.0
2016-Jul-23 02:28N 59°56' E 029°42'0 0.0
2016-Jul-23 01:31N 59°56' E 029°42'0 0.0
2016-Jul-23 00:31N 59°56' E 029°42'0 0.0
2016-Jul-22 23:31N 59°56' E 029°42'0 0.0
2016-Jul-22 22:31N 59°56' E 029°42'0 0.0
2016-Jul-22 21:31N 59°56' E 029°42'0 0.0
2016-Jul-22 20:31N 59°56' E 029°42'0 0.2
2016-Jul-22 19:15N 59°56' E 029°42'3 4.2
2016-Jul-22 18:33N 59°59' E 029°44'1111.0
2016-Jul-22 17:33N 59°54' E 030°04'5 4.6
2016-Jul-22 16:33N 59°52' E 030°12'0 0.0
2016-Jul-22 15:32N 59°52' E 030°12'0 0.0
2016-Jul-22 14:32N 59°52' E 030°12'0 0.0
2016-Jul-22 13:32N 59°52' E 030°12'0 0.0
2016-Jul-22 12:32N 59°52' E 030°12'0 0.0
2016-Jul-22 11:32N 59°52' E 030°12'0 0.0
2016-Jul-22 10:32N 59°52' E 030°12'0 0.0
2016-Jul-22 09:33N 59°52' E 030°12'0 0.0
2016-Jul-22 08:32N 59°52' E 030°12'0 0.0
2016-Jul-22 07:32N 59°52' E 030°12'0 0.0
2016-Jul-22 04:32N 59°52' E 030°12'0 0.0
2016-Jul-22 03:32N 59°52' E 030°12'0 0.0
2016-Jul-22 02:32N 59°52' E 030°12'0 0.0
2016-Jul-22 01:32N 59°52' E 030°12'0 0.0
2016-Jul-22 00:32N 59°52' E 030°12'0 0.0
2016-Jul-21 23:32N 59°52' E 030°12'0 0.5
2016-Jul-21 22:29N 59°53' E 030°12'0 0.0
2016-Jul-21 21:26N 59°53' E 030°12'0 0.0
2016-Jul-21 20:32N 59°53' E 030°12'0 0.0
2016-Jul-21 19:32N 59°53' E 030°12'0 0.0
2016-Jul-21 18:32N 59°53' E 030°12'0 0.0
2016-Jul-21 17:32N 59°53' E 030°12'0 0.0
2016-Jul-21 16:32N 59°53' E 030°12'0 0.0
2016-Jul-21 15:32N 59°53' E 030°12'0 0.0
2016-Jul-21 14:32N 59°53' E 030°12'0 0.0
2016-Jul-21 13:32N 59°53' E 030°12'0 0.0
2016-Jul-21 12:32N 59°53' E 030°12'0 0.0
2016-Jul-21 11:32N 59°53' E 030°12'0 0.0
2016-Jul-21 10:32N 59°53' E 030°12'0 0.0
2016-Jul-21 09:32N 59°53' E 030°12'0 0.0
2016-Jul-21 08:32N 59°53' E 030°12'0 0.0
2016-Jul-21 07:32N 59°53' E 030°12'0 0.0
2016-Jul-21 06:26N 59°53' E 030°12'0 0.0
2016-Jul-21 05:32N 59°53' E 030°12'0 0.0
2016-Jul-21 04:29N 59°53' E 030°12'0 0.0
2016-Jul-21 03:32N 59°53' E 030°12'3 2.8
2016-Jul-21 02:33N 59°54' E 030°07'1010.1
2016-Jul-21 01:33N 59°58' E 029°48'1110.3
2016-Jul-21 00:28N 60°01' E 029°28'  
Track history (hours):
 
Tides and Currents Weather Stations Pressure Air Temp Water Temp Dewpoint Dewpoint Depression Visibility Wind Speed Wind Dir Waves Ship Positions

CMA CGM Aristote

Last reported at 2016-Jul-30 22:34 UTC. Time now 2016-Jul-31 07:24 UTC.
Position N 49°58' W 002°50'.

Length 170 m; draft 9.5 m.

Type: Ship (hazmat cat A). MMSI: 235054581.

Date/timePositionNaut miles runAvg speedWind from/ knotsBaromVisibWave heightAir tempDewpointWater temp
2016-Jul-30 22:34N 49°58' W 002°50'2020.3
2016-Jul-30 21:33N 50°03' W 002°19'1919.4
2016-Jul-30 20:34N 49°58' W 001°50'1918.3
2016-Jul-30 19:32N 49°51' W 001°23'1616.9
2016-Jul-30 18:34N 49°45' W 000°59'1716.5
2016-Jul-30 17:34N 49°40' W 000°35'1515.3
2016-Jul-30 16:33N 49°34' W 000°13'1211.6
2016-Jul-30 15:33N 49°30' E 000°03'5 5.0
2016-Jul-30 14:33N 49°27' E 000°10'0 0.0
2016-Jul-30 13:33N 49°27' E 000°10'0 0.0
2016-Jul-30 12:33N 49°27' E 000°10'0 0.0
2016-Jul-30 11:33N 49°27' E 000°10'1 0.7
2016-Jul-30 10:33N 49°27' E 000°09'3 3.3
2016-Jul-30 09:33N 49°29' E 000°05'1010.0
2016-Jul-30 08:33N 49°36' W 000°06'6 6.4
2016-Jul-30 07:33N 49°42' W 000°09'1 0.7
2016-Jul-30 06:33N 49°42' W 000°10'2 1.9
2016-Jul-30 05:33N 49°42' W 000°13'3 3.0
2016-Jul-30 04:33N 49°45' W 000°14'7 7.3
2016-Jul-30 03:33N 49°52' W 000°17'9 9.1
2016-Jul-30 02:33N 50°01' W 000°18'9 9.0
2016-Jul-30 01:33N 50°10' W 000°18'9 9.2
2016-Jul-30 00:33N 50°19' W 000°18'8 8.0
2016-Jul-29 23:33N 50°26' W 000°10'9 9.3
2016-Jul-29 22:33N 50°28' E 000°04'9 8.8
2016-Jul-29 21:31N 50°31' E 000°18'5 5.2
2016-Jul-29 20:33N 50°32' E 000°25'12 5.6
2016-Jul-29 18:27N 50°37' E 000°42'21 9.4
2016-Jul-29 16:12N 50°49' E 001°10'812.5
2016-Jul-29 15:31N 50°55' E 001°19'1313.6
2016-Jul-29 14:33N 51°05' E 001°33'1313.3
2016-Jul-29 13:34N 51°15' E 001°47'1212.0
2016-Jul-29 12:34N 51°24' E 001°59'1111.0
2016-Jul-29 11:33N 51°21' E 002°16'1110.7
2016-Jul-29 10:34N 51°23' E 002°33'1110.6
2016-Jul-29 09:33N 51°23' E 002°50'1313.2
2016-Jul-29 08:33N 51°24' E 003°11'1312.9
2016-Jul-29 07:33N 51°25' E 003°32'7 7.1
2016-Jul-29 06:33N 51°24' E 003°43'9 9.2
2016-Jul-29 05:33N 51°24' E 003°57'9 8.5
2016-Jul-29 04:34N 51°24' E 004°11'7 6.9
2016-Jul-29 03:34N 51°18' E 004°16'0 0.0
2016-Jul-29 02:32N 51°18' E 004°16'0 0.0
2016-Jul-29 01:32N 51°18' E 004°16'0 0.0
2016-Jul-29 00:29N 51°18' E 004°16'0 0.0
2016-Jul-28 23:32N 51°18' E 004°16'0 0.0
2016-Jul-28 22:32N 51°18' E 004°16'0 0.0
2016-Jul-28 21:26N 51°18' E 004°16'0 0.0
2016-Jul-28 20:32N 51°18' E 004°16'0 0.0
2016-Jul-28 19:32N 51°18' E 004°16'0 0.0
2016-Jul-28 18:32N 51°18' E 004°16'0 0.0
2016-Jul-28 17:29N 51°18' E 004°16'0 0.0
2016-Jul-28 16:29N 51°18' E 004°16'0 0.0
2016-Jul-28 15:29N 51°18' E 004°16'0 0.0
2016-Jul-28 14:26N 51°18' E 004°16'3 3.6
2016-Jul-28 13:33N 51°21' E 004°16'9 9.0
2016-Jul-28 12:33N 51°24' E 004°02'8 8.3
2016-Jul-28 11:33N 51°21' E 003°50'10 9.8
2016-Jul-28 10:34N 51°26' E 003°37'9 9.0
2016-Jul-28 09:33N 51°32' E 003°25'1110.6
2016-Jul-28 08:33N 51°41' E 003°18'10 9.2
2016-Jul-28 07:31N 51°51' E 003°18'16 8.1
2016-Jul-28 05:33N 52°03' E 003°35'1110.7
2016-Jul-28 04:33N 52°03' E 003°52'9 8.9
2016-Jul-28 03:33N 51°58' E 004°04'1 1.3
2016-Jul-28 02:31N 51°58' E 004°02'0 0.0
2016-Jul-28 01:31N 51°58' E 004°02'0 0.0
2016-Jul-28 00:31N 51°58' E 004°02'0 0.0
2016-Jul-27 23:25N 51°58' E 004°02'0 0.0
2016-Jul-27 22:31N 51°58' E 004°02'0 0.0
2016-Jul-27 21:31N 51°58' E 004°02'0 0.0
2016-Jul-27 20:31N 51°58' E 004°02'0 0.0
2016-Jul-27 19:28N 51°58' E 004°02'0 0.0
2016-Jul-27 18:31N 51°58' E 004°02'0 0.0
2016-Jul-27 17:31N 51°58' E 004°02'1 1.3
2016-Jul-27 16:34N 51°59' E 004°04'1010.1
2016-Jul-27 15:33N 52°01' E 003°48'1211.7
2016-Jul-27 14:33N 52°12' E 003°46'1717.3
2016-Jul-27 13:33N 52°29' E 003°50'2019.6
2016-Jul-27 12:34N 52°49' E 003°56'5117.0
2016-Jul-27 09:32N 53°30' E 004°46'1717.6
2016-Jul-27 08:33N 53°36' E 005°14'1919.1
2016-Jul-27 07:34N 53°43' E 005°44'2019.6
2016-Jul-27 06:34N 53°49' E 006°15'2019.5
2016-Jul-27 05:33N 53°54' E 006°47'1919.1
2016-Jul-27 04:33N 53°59' E 007°19'1818.0
2016-Jul-27 03:33N 54°02' E 007°49'1313.1
2016-Jul-27 02:33N 54°01' E 008°11'1211.7
2016-Jul-27 01:33N 53°58' E 008°30'1212.1
2016-Jul-27 00:33N 53°51' E 008°46'1414.0
2016-Jul-26 23:33N 53°53' E 009°10'1414.3
2016-Jul-26 22:34N 53°43' E 009°28'1313.4
2016-Jul-26 21:33N 53°34' E 009°44'7 7.0
2016-Jul-26 20:33N 53°32' E 009°55'0 0.0
2016-Jul-26 19:33N 53°32' E 009°55'0 0.0
2016-Jul-26 18:33N 53°32' E 009°55'0 0.0
2016-Jul-26 17:33N 53°32' E 009°55'0 0.0
2016-Jul-26 16:33N 53°32' E 009°55'0 0.0
2016-Jul-26 15:33N 53°32' E 009°55'0 0.0
2016-Jul-26 14:33N 53°32' E 009°55'2 1.9
2016-Jul-26 13:34N 53°33' E 009°52'9 8.7
2016-Jul-26 12:34N 53°35' E 009°38'1111.4
2016-Jul-26 11:33N 53°44' E 009°27'1212.5
2016-Jul-26 10:34N 53°53' E 009°12'1110.9
2016-Jul-26 09:33N 53°51' E 008°54'1110.4
2016-Jul-26 08:33N 53°56' E 008°39'1313.0
2016-Jul-26 07:33N 53°60' E 008°18'1110.6
2016-Jul-26 06:33N 54°01' E 007°60'1212.0
2016-Jul-26 05:33N 54°07' E 007°42'1514.7
2016-Jul-26 04:33N 54°21' E 007°33'1918.5
2016-Jul-26 03:33N 54°39' E 007°29'1918.7
2016-Jul-26 02:33N 54°57' E 007°25'1919.1
2016-Jul-26 01:33N 55°16' E 007°21'1919.2
2016-Jul-26 00:33N 55°35' E 007°17'1918.7
2016-Jul-25 23:33N 55°54' E 007°24'13717.1
2016-Jul-25 15:32N 57°41' E 010°00'1717.7
2016-Jul-25 14:33N 57°48' E 010°30'1716.8
2016-Jul-25 13:33N 57°42' E 010°59'1919.0
2016-Jul-25 12:33N 57°29' E 011°25'1919.0
2016-Jul-25 11:33N 57°11' E 011°37'1818.4
2016-Jul-25 10:33N 56°54' E 011°48'1716.6
2016-Jul-25 09:33N 56°38' E 011°45'1918.8
2016-Jul-25 08:33N 56°21' E 011°28'1818.0
2016-Jul-25 07:33N 56°07' E 011°10'1616.0
2016-Jul-25 06:33N 55°53' E 010°54'1413.5
2016-Jul-25 05:34N 55°40' E 010°47'1413.7
2016-Jul-25 04:33N 55°27' E 010°57'1313.5
2016-Jul-25 03:33N 55°15' E 011°05'1616.3
2016-Jul-25 02:33N 54°59' E 011°01'1717.4
2016-Jul-25 01:33N 54°42' E 010°55'2019.6
2016-Jul-25 00:33N 54°33' E 011°25'1919.1
2016-Jul-24 23:34N 54°26' E 011°56'1514.9
2016-Jul-24 22:33N 54°37' E 012°14'1818.4
2016-Jul-24 21:34N 54°47' E 012°40'1818.1
2016-Jul-24 20:33N 54°53' E 013°10'1918.7
2016-Jul-24 19:33N 54°59' E 013°40'1818.0
2016-Jul-24 18:33N 55°08' E 014°08'1918.7
2016-Jul-24 17:33N 55°22' E 014°29'1918.6
2016-Jul-24 16:33N 55°34' E 014°56'1818.5
2016-Jul-24 15:33N 55°43' E 015°24'31518.5
2016-Jul-23 22:33N 59°26' E 022°17'1918.5
2016-Jul-23 21:32N 59°34' E 022°51'1818.6
2016-Jul-23 20:33N 59°40' E 023°25'1918.6
2016-Jul-23 19:33N 59°44' E 024°01'1918.6
2016-Jul-23 18:33N 59°48' E 024°37'3718.5
2016-Jul-23 16:33N 59°56' E 025°49'1918.8
2016-Jul-23 15:33N 60°00' E 026°26'1918.1
2016-Jul-23 14:30N 60°00' E 027°04'1818.7
2016-Jul-23 13:33N 60°09' E 027°35'1716.6
2016-Jul-23 12:33N 60°09' E 028°08'1413.7
2016-Jul-23 11:33N 60°03' E 028°33'1212.5
2016-Jul-23 10:33N 60°02' E 028°58'1312.9
2016-Jul-23 09:32N 60°02' E 029°24'1010.5
2016-Jul-23 08:33N 59°59' E 029°44'3 2.9
2016-Jul-23 07:31N 59°56' E 029°42'0 0.0
2016-Jul-23 06:31N 59°56' E 029°42'0 0.0
2016-Jul-23 04:31N 59°56' E 029°42'0 0.0
2016-Jul-23 03:28N 59°56' E 029°42'0 0.0
2016-Jul-23 02:28N 59°56' E 029°42'0 0.0
2016-Jul-23 01:31N 59°56' E 029°42'0 0.0
2016-Jul-23 00:31N 59°56' E 029°42'0 0.0
2016-Jul-22 23:31N 59°56' E 029°42'0 0.0
2016-Jul-22 22:31N 59°56' E 029°42'0 0.0
2016-Jul-22 21:31N 59°56' E 029°42'0 0.0
2016-Jul-22 20:31N 59°56' E 029°42'0 0.2
2016-Jul-22 19:15N 59°56' E 029°42'3 4.2
2016-Jul-22 18:33N 59°59' E 029°44'1111.0
2016-Jul-22 17:33N 59°54' E 030°04'5 4.6
2016-Jul-22 16:33N 59°52' E 030°12'0 0.0
2016-Jul-22 15:32N 59°52' E 030°12'0 0.0
2016-Jul-22 14:32N 59°52' E 030°12'0 0.0
2016-Jul-22 13:32N 59°52' E 030°12'0 0.0
2016-Jul-22 12:32N 59°52' E 030°12'0 0.0
2016-Jul-22 11:32N 59°52' E 030°12'0 0.0
2016-Jul-22 10:32N 59°52' E 030°12'0 0.0
2016-Jul-22 09:33N 59°52' E 030°12'0 0.0
2016-Jul-22 08:32N 59°52' E 030°12'0 0.0
2016-Jul-22 07:32N 59°52' E 030°12'0 0.0
2016-Jul-22 04:32N 59°52' E 030°12'0 0.0
2016-Jul-22 03:32N 59°52' E 030°12'0 0.0
2016-Jul-22 02:32N 59°52' E 030°12'0 0.0
2016-Jul-22 01:32N 59°52' E 030°12'0 0.0
2016-Jul-22 00:32N 59°52' E 030°12'0 0.0
2016-Jul-21 23:32N 59°52' E 030°12'0 0.5
2016-Jul-21 22:29N 59°53' E 030°12'0 0.0
2016-Jul-21 21:26N 59°53' E 030°12'0 0.0
2016-Jul-21 20:32N 59°53' E 030°12'0 0.0
2016-Jul-21 19:32N 59°53' E 030°12'0 0.0
2016-Jul-21 18:32N 59°53' E 030°12'0 0.0
2016-Jul-21 17:32N 59°53' E 030°12'0 0.0
2016-Jul-21 16:32N 59°53' E 030°12'0 0.0
2016-Jul-21 15:32N 59°53' E 030°12'0 0.0
2016-Jul-21 14:32N 59°53' E 030°12'0 0.0
2016-Jul-21 13:32N 59°53' E 030°12'0 0.0
2016-Jul-21 12:32N 59°53' E 030°12'0 0.0
2016-Jul-21 11:32N 59°53' E 030°12'0 0.0
2016-Jul-21 10:32N 59°53' E 030°12'0 0.0
2016-Jul-21 09:32N 59°53' E 030°12'0 0.0
2016-Jul-21 08:32N 59°53' E 030°12'0 0.0
2016-Jul-21 07:32N 59°53' E 030°12'0 0.0
2016-Jul-21 06:26N 59°53' E 030°12'0 0.0
2016-Jul-21 05:32N 59°53' E 030°12'0 0.0
2016-Jul-21 04:29N 59°53' E 030°12'0 0.0
2016-Jul-21 03:32N 59°53' E 030°12'3 2.8
2016-Jul-21 02:33N 59°54' E 030°07'1010.1
2016-Jul-21 01:33N 59°58' E 029°48'1110.3
2016-Jul-21 00:28N 60°01' E 029°28'  

Dump ship's entire track history